Time;durP1;ratioP1;P1;durP2;ratioP2;P2;SDS_P1;SDS_P2;PMS_P1;PMS_P2;Temp;Humidity;BMP_temperature;BMP_pressure;BME280_temperature;BME280_humidity;BME280_pressure;Samples;Min_cycle;Max_cycle;Signal;HPM_P1;HPM_P2
2023/01/27 00:00:54;;;;;;;21.08;12.93;;;4.50;99.90;;;;;;5083460;27;20493;-92
2023/01/27 00:03:23;;;;;;;18.42;12.90;;;4.40;99.90;;;;;;5083557;27;20389;-92
2023/01/27 00:05:49;;;;;;;20.88;12.57;;;4.40;99.90;;;;;;5100185;27;20508;-92
2023/01/27 00:08:17;;;;;;;20.65;13.20;;;4.50;99.90;;;;;;5099793;27;20039;-92
2023/01/27 00:10:43;;;;;;;20.52;12.95;;;4.50;99.90;;;;;;5099499;27;20087;-92
2023/01/27 00:13:27;;;;;;;18.48;13.07;;;4.50;99.90;;;;;;5098949;27;20047;-92
2023/01/27 00:15:52;;;;;;;15.15;10.25;;;4.50;99.90;;;;;;5095886;27;20039;-92
2023/01/27 00:18:18;;;;;;;15.18;10.85;;;4.40;99.90;;;;;;5099179;27;20511;-92
2023/01/27 00:26:16;;;;;;;13.50;9.82;;;4.40;99.90;;;;;;5101438;27;20479;-92
2023/01/27 00:28:43;;;;;;;12.23;9.07;;;4.40;99.90;;;;;;5080232;27;20040;-92
2023/01/27 00:34:00;;;;;;;14.38;9.70;;;4.40;99.90;;;;;;5099479;27;20314;-92
2023/01/27 00:36:32;;;;;;;12.48;9.82;;;4.40;99.90;;;;;;5104256;27;20075;-92
2023/01/27 00:38:58;;;;;;;13.30;9.68;;;4.40;99.90;;;;;;5087166;27;20103;-92
2023/01/27 00:41:24;;;;;;;12.90;9.35;;;4.30;99.90;;;;;;5087282;27;20043;-92
2023/01/27 00:43:52;;;;;;;13.10;9.52;;;4.40;99.90;;;;;;5100670;27;20118;-92
2023/01/27 00:46:19;;;;;;;15.05;9.57;;;4.40;99.90;;;;;;5099114;27;20045;-92
2023/01/27 00:48:48;;;;;;;13.98;9.40;;;4.40;99.90;;;;;;5094184;28;20061;-92
2023/01/27 00:51:14;;;;;;;13.40;9.25;;;4.40;99.90;;;;;;5083340;27;20031;-92
2023/01/27 00:53:40;;;;;;;12.70;8.68;;;4.40;99.90;;;;;;5101544;27;20085;-92
2023/01/27 00:56:07;;;;;;;13.98;8.20;;;4.30;99.90;;;;;;5092780;28;20281;-92
2023/01/27 00:58:33;;;;;;;10.32;6.88;;;4.30;99.90;;;;;;5084029;27;20035;-92
2023/01/27 01:01:06;;;;;;;10.48;6.20;;;4.30;99.90;;;;;;5100659;27;20501;-92
2023/01/27 01:03:34;;;;;;;12.55;7.18;;;4.30;99.90;;;;;;5097197;27;20545;-92
2023/01/27 01:06:02;;;;;;;9.68;6.43;;;4.30;99.90;;;;;;5102660;27;20063;-92
2023/01/27 01:08:33;;;;;;;9.90;5.95;;;4.30;99.90;;;;;;5081290;27;20050;-92
2023/01/27 01:11:01;;;;;;;8.57;6.00;;;4.30;99.90;;;;;;5091104;27;20488;-91
2023/01/27 01:13:27;;;;;;;10.88;5.63;;;4.30;99.90;;;;;;5098486;27;20321;-92
2023/01/27 01:15:54;;;;;;;9.32;5.90;;;4.30;99.90;;;;;;5085337;27;20306;-92
2023/01/27 01:18:19;;;;;;;7.57;5.18;;;4.30;99.90;;;;;;5093893;27;20032;-92
2023/01/27 01:20:46;;;;;;;10.73;5.40;;;4.30;99.90;;;;;;5099281;27;20046;-92
2023/01/27 01:23:13;;;;;;;9.85;5.15;;;4.30;99.90;;;;;;5101222;28;20083;-92
2023/01/27 01:25:38;;;;;;;8.48;5.75;;;4.30;99.90;;;;;;5099900;27;20043;-92
2023/01/27 01:28:05;;;;;;;7.07;4.90;;;4.30;99.90;;;;;;5083602;27;20046;-92
2023/01/27 01:30:34;;;;;;;9.13;5.00;;;4.30;99.90;;;;;;5083020;27;20043;-92
2023/01/27 01:32:59;;;;;;;9.57;5.30;;;4.30;99.90;;;;;;5083631;27;20092;-92
2023/01/27 01:35:25;;;;;;;9.43;4.50;;;4.30;99.90;;;;;;5080159;28;20044;-92
2023/01/27 01:37:52;;;;;;;6.85;4.82;;;4.30;99.90;;;;;;5101002;27;20359;-92
2023/01/27 01:40:18;;;;;;;6.53;4.45;;;4.30;99.90;;;;;;5097811;27;20040;-92
2023/01/27 01:42:52;;;;;;;10.23;4.80;;;4.30;99.90;;;;;;5096071;27;20058;-92
2023/01/27 01:45:30;;;;;;;6.70;4.55;;;4.30;99.90;;;;;;5099376;27;20038;-92
2023/01/27 01:47:58;;;;;;;6.55;4.10;;;4.30;99.90;;;;;;5092481;27;20050;-92
2023/01/27 01:50:24;;;;;;;7.78;4.35;;;4.30;99.90;;;;;;5084054;27;20126;-91
2023/01/27 01:52:50;;;;;;;7.80;4.10;;;4.30;99.90;;;;;;5093589;27;20150;-92
2023/01/27 01:55:16;;;;;;;6.22;4.30;;;4.40;99.90;;;;;;5085553;28;20126;-92
2023/01/27 01:57:44;;;;;;;8.32;4.60;;;4.40;99.90;;;;;;5094015;28;20114;-91
2023/01/27 02:00:10;;;;;;;6.15;4.03;;;4.40;99.90;;;;;;5084789;28;20504;-92
2023/01/27 02:02:38;;;;;;;6.50;4.20;;;4.40;99.90;;;;;;5083706;28;20084;-91
2023/01/27 02:05:18;;;;;;;6.25;3.97;;;4.40;99.90;;;;;;5081447;27;20032;-92
2023/01/27 02:07:56;;;;;;;8.10;4.07;;;4.40;99.90;;;;;;5099191;28;20055;-91
2023/01/27 02:10:25;;;;;;;6.13;3.95;;;4.30;99.90;;;;;;5098891;28;20031;-91
2023/01/27 02:12:51;;;;;;;6.32;3.72;;;4.40;99.90;;;;;;5084276;28;20339;-92
2023/01/27 02:15:17;;;;;;;6.90;3.72;;;4.40;99.90;;;;;;5107975;28;20057;-92
2023/01/27 02:17:42;;;;;;;6.95;3.60;;;4.40;99.90;;;;;;5097452;28;20054;-92
2023/01/27 02:20:16;;;;;;;3.60;2.90;;;4.30;99.90;;;;;;5081240;28;20393;-92
2023/01/27 02:23:07;;;;;;;4.63;3.57;;;4.40;99.90;;;;;;5082156;28;20470;-92
2023/01/27 02:25:35;;;;;;;7.00;3.33;;;4.30;99.90;;;;;;5095953;28;20250;-91
2023/01/27 02:28:04;;;;;;;3.75;2.83;;;4.40;99.90;;;;;;5083643;28;20043;-92
2023/01/27 02:30:33;;;;;;;5.00;2.85;;;4.30;99.90;;;;;;5082645;28;20751;-92
2023/01/27 02:32:59;;;;;;;6.53;3.33;;;4.30;99.90;;;;;;5099200;28;20046;-92
2023/01/27 02:35:40;;;;;;;5.13;2.65;;;4.30;99.90;;;;;;5086641;28;20034;-92
2023/01/27 02:38:10;;;;;;;4.35;2.50;;;4.40;99.90;;;;;;5088632;28;20035;-92
2023/01/27 02:40:36;;;;;;;5.32;2.63;;;4.40;99.90;;;;;;5084437;28;20066;-92
2023/01/27 02:43:04;;;;;;;6.22;2.80;;;4.30;99.90;;;;;;5082469;28;20062;-92
2023/01/27 02:45:30;;;;;;;3.05;2.30;;;4.30;99.90;;;;;;5097662;28;20034;-92
2023/01/27 02:47:55;;;;;;;6.55;2.47;;;4.30;99.90;;;;;;5090300;28;20050;-91
2023/01/27 02:50:21;;;;;;;2.90;2.13;;;4.40;99.90;;;;;;5084984;28;20042;-92
2023/01/27 02:52:47;;;;;;;3.95;2.28;;;4.30;99.90;;;;;;5097549;28;20067;-92
2023/01/27 02:55:12;;;;;;;4.68;2.72;;;4.30;99.90;;;;;;5097394;28;20284;-92
2023/01/27 02:57:38;;;;;;;4.63;2.63;;;4.30;99.90;;;;;;5081027;28;20209;-92
2023/01/27 03:00:04;;;;;;;4.13;2.58;;;4.30;99.90;;;;;;5106518;28;20027;-92
2023/01/27 03:02:30;;;;;;;5.82;2.50;;;4.30;99.90;;;;;;5100704;28;20921;-92
2023/01/27 03:04:56;;;;;;;4.78;2.53;;;4.30;99.90;;;;;;5095505;28;20031;-92
2023/01/27 03:07:23;;;;;;;4.25;2.30;;;4.30;99.90;;;;;;5097817;28;20039;-92
2023/01/27 03:09:49;;;;;;;5.15;2.20;;;4.30;99.90;;;;;;5082042;28;20073;-91
2023/01/27 03:12:20;;;;;;;3.08;2.40;;;4.30;99.90;;;;;;5098045;27;20071;-92
2023/01/27 03:20:23;;;;;;;3.25;2.20;;;4.30;99.90;;;;;;5115413;27;20073;-92
2023/01/27 03:22:49;;;;;;;4.18;2.00;;;4.30;99.90;;;;;;5079532;27;20055;-92
2023/01/27 03:25:15;;;;;;;5.32;2.20;;;4.30;99.90;;;;;;5083356;27;20038;-92
2023/01/27 03:27:41;;;;;;;4.47;2.10;;;4.20;99.90;;;;;;5083425;27;20043;-92
2023/01/27 03:30:10;;;;;;;2.67;2.03;;;4.20;99.90;;;;;;5093162;27;20039;-92
2023/01/27 03:32:36;;;;;;;4.47;3.15;;;4.20;99.90;;;;;;5104210;27;20519;-92
2023/01/27 03:35:06;;;;;;;4.95;2.15;;;4.20;99.90;;;;;;5116466;27;20118;-92
2023/01/27 03:48:35;;;;;;;;;;;4.20;99.90;;;;;;5077158;28;20069;-92
2023/01/27 03:51:03;;;;;;;3.40;2.05;;;4.10;99.90;;;;;;5081219;28;19990;-92
2023/01/27 03:53:28;;;;;;;3.17;1.95;;;4.20;99.90;;;;;;5068916;28;20043;-92
2023/01/27 03:55:54;;;;;;;5.22;1.98;;;4.10;99.90;;;;;;5077625;28;20137;-93
2023/01/27 03:58:26;;;;;;;6.35;2.25;;;4.10;99.90;;;;;;5063980;28;20098;-92
2023/01/27 04:00:54;;;;;;;3.40;2.28;;;4.10;99.90;;;;;;5077248;28;20044;-92
2023/01/27 04:08:59;;;;;;;4.28;1.92;;;4.20;99.90;;;;;;5097211;27;20059;-92
2023/01/27 04:14:11;;;;;;;6.50;2.33;;;4.10;99.90;;;;;;5076002;28;20262;-92
2023/01/27 04:16:37;;;;;;;3.65;1.77;;;4.10;99.90;;;;;;5076664;28;20035;-92
2023/01/27 04:19:07;;;;;;;3.15;2.33;;;4.10;99.90;;;;;;5059694;28;20483;-92
2023/01/27 04:21:36;;;;;;;3.85;2.05;;;4.00;99.90;;;;;;5078587;28;20036;-91
2023/01/27 04:24:03;;;;;;;4.85;1.70;;;4.10;99.90;;;;;;5062646;28;20040;-92
2023/01/27 04:26:32;;;;;;;7.15;1.90;;;4.00;99.90;;;;;;5065081;28;20083;-92
2023/01/27 04:28:59;;;;;;;3.88;1.50;;;4.00;99.90;;;;;;5061701;28;20046;-92
2023/01/27 04:31:25;;;;;;;3.42;1.50;;;4.00;99.90;;;;;;5078030;28;20454;-92
2023/01/27 04:33:51;;;;;;;4.32;2.20;;;4.00;99.90;;;;;;5076032;28;20184;-92
2023/01/27 04:36:17;;;;;;;3.03;1.80;;;4.00;99.90;;;;;;5063401;28;20044;-92
2023/01/27 04:38:42;;;;;;;4.63;1.95;;;4.00;99.90;;;;;;5080294;28;20385;-92
2023/01/27 04:41:08;;;;;;;5.18;2.30;;;4.00;99.90;;;;;;5078149;28;20063;-91
2023/01/27 04:43:37;;;;;;;2.97;2.20;;;4.00;99.90;;;;;;5082555;28;20031;-92
2023/01/27 04:46:03;;;;;;;4.47;2.40;;;4.00;99.90;;;;;;5094881;28;20065;-91
2023/01/27 04:48:29;;;;;;;5.25;2.60;;;3.90;99.90;;;;;;5098149;28;20074;-92
2023/01/27 04:50:57;;;;;;;3.58;2.45;;;3.90;99.90;;;;;;5095850;28;20035;-91
2023/01/27 04:53:23;;;;;;;4.38;2.85;;;3.90;99.90;;;;;;5094547;27;20087;-92
2023/01/27 04:55:49;;;;;;;3.95;2.55;;;3.90;99.90;;;;;;5081285;28;20047;-92
2023/01/27 04:58:16;;;;;;;3.65;3.15;;;3.90;99.90;;;;;;5095825;28;20058;-92
2023/01/27 05:00:43;;;;;;;5.82;3.30;;;3.90;99.90;;;;;;5084259;28;20071;-91
2023/01/27 05:03:10;;;;;;;5.88;3.85;;;3.90;99.90;;;;;;5082060;28;20544;-91
2023/01/27 05:05:37;;;;;;;6.90;4.05;;;3.90;99.90;;;;;;5077385;28;20031;-91
2023/01/27 05:08:03;;;;;;;6.65;4.07;;;3.90;99.90;;;;;;5081439;28;20210;-91
2023/01/27 05:10:29;;;;;;;5.38;3.10;;;3.90;99.90;;;;;;5096027;28;20398;-91
2023/01/27 05:12:55;;;;;;;3.47;3.05;;;3.90;99.90;;;;;;5082560;28;20036;-91
2023/01/27 05:15:20;;;;;;;4.38;3.35;;;3.90;99.90;;;;;;5094834;28;20578;-91
2023/01/27 05:17:46;;;;;;;6.05;3.53;;;3.90;99.90;;;;;;5080806;28;20082;-91
2023/01/27 05:20:12;;;;;;;5.72;3.38;;;3.90;99.90;;;;;;5096285;28;20036;-91
2023/01/27 05:22:37;;;;;;;4.30;3.05;;;3.90;99.90;;;;;;5096282;28;20410;-91
2023/01/27 05:25:03;;;;;;;5.50;4.05;;;3.90;99.90;;;;;;5091653;28;20134;-91
2023/01/27 05:27:29;;;;;;;5.93;3.38;;;3.90;99.90;;;;;;5081319;28;20553;-92
2023/01/27 05:29:55;;;;;;;5.75;3.50;;;3.90;99.90;;;;;;5108433;27;20054;-91
2023/01/27 05:32:21;;;;;;;8.10;3.17;;;3.90;99.90;;;;;;5076401;28;20042;-91
2023/01/27 05:34:47;;;;;;;6.82;3.47;;;3.80;99.90;;;;;;5079666;28;20039;-91
2023/01/27 05:37:12;;;;;;;5.93;3.20;;;3.80;99.90;;;;;;5093419;28;20135;-92
2023/01/27 05:39:45;;;;;;;4.95;3.15;;;3.80;99.90;;;;;;5063320;28;20119;-91
2023/01/27 05:42:10;;;;;;;4.53;2.88;;;3.80;99.90;;;;;;5056166;28;20066;-92
2023/01/27 05:44:36;;;;;;;6.28;2.95;;;3.80;99.90;;;;;;5074746;28;20637;-92
2023/01/27 05:47:02;;;;;;;5.63;2.90;;;3.80;99.90;;;;;;5075075;28;20074;-91
2023/01/27 05:49:27;;;;;;;4.18;2.85;;;3.80;99.90;;;;;;5073745;28;20039;-91
2023/01/27 05:51:53;;;;;;;7.93;3.05;;;3.80;99.90;;;;;;5059018;28;20038;-91
2023/01/27 05:54:19;;;;;;;6.40;3.08;;;3.80;99.90;;;;;;5060131;28;20039;-91
2023/01/27 05:56:44;;;;;;;4.82;3.00;;;3.80;99.90;;;;;;5058056;28;20261;-92
2023/01/27 05:59:13;;;;;;;5.65;2.90;;;3.80;99.90;;;;;;5070805;28;20055;-92
2023/01/27 06:01:39;;;;;;;6.75;2.75;;;3.80;99.90;;;;;;5058638;28;20142;-90
2023/01/27 06:04:05;;;;;;;3.38;2.40;;;3.80;99.90;;;;;;5059336;28;20100;-92
2023/01/27 06:06:32;;;;;;;5.72;2.60;;;3.80;99.90;;;;;;5088800;28;20028;-91
2023/01/27 06:08:59;;;;;;;4.60;2.80;;;3.80;99.90;;;;;;5061699;28;20038;-92
2023/01/27 06:11:25;;;;;;;3.97;2.45;;;3.80;99.90;;;;;;5055786;28;20067;-91
2023/01/27 06:13:54;;;;;;;8.02;2.20;;;3.70;99.90;;;;;;5072955;28;20068;-91
2023/01/27 06:16:21;;;;;;;7.40;2.40;;;3.80;99.90;;;;;;5073395;28;20036;-91
2023/01/27 06:18:47;;;;;;;4.97;2.63;;;3.70;99.90;;;;;;5054776;28;20042;-91
2023/01/27 06:21:14;;;;;;;4.47;2.50;;;3.70;99.90;;;;;;5074615;28;20036;-91
2023/01/27 06:23:40;;;;;;;8.52;2.47;;;3.70;99.90;;;;;;5073580;28;20032;-92
2023/01/27 06:26:08;;;;;;;5.00;2.20;;;3.70;99.90;;;;;;5074432;28;20044;-92
2023/01/27 06:28:35;;;;;;;5.57;2.28;;;3.70;99.90;;;;;;5072648;28;20055;-91
2023/01/27 06:31:13;;;;;;;4.45;2.40;;;3.70;99.90;;;;;;5076985;28;20040;-92
2023/01/27 06:33:39;;;;;;;9.80;2.72;;;3.70;99.90;;;;;;5060336;28;20050;-91
2023/01/27 06:36:11;;;;;;;3.65;2.25;;;3.70;99.90;;;;;;5059220;28;20048;-91
2023/01/27 06:38:37;;;;;;;4.22;2.08;;;3.70;99.90;;;;;;5064916;28;20118;-91
2023/01/27 06:41:04;;;;;;;5.00;2.30;;;3.70;99.90;;;;;;5076876;28;20604;-91
2023/01/27 06:43:30;;;;;;;3.03;2.17;;;3.70;99.90;;;;;;5076924;28;20043;-92
2023/01/27 06:45:59;;;;;;;4.13;2.28;;;3.70;99.90;;;;;;5080614;28;20047;-91
2023/01/27 06:48:26;;;;;;;2.83;2.03;;;3.70;99.90;;;;;;5080968;28;20050;-91
2023/01/27 06:50:53;;;;;;;4.07;2.00;;;3.70;99.90;;;;;;5083129;28;20484;-91
2023/01/27 06:53:22;;;;;;;3.05;2.05;;;3.70;99.90;;;;;;5078042;28;20048;-92
2023/01/27 06:55:48;;;;;;;5.15;2.45;;;3.70;99.90;;;;;;5097386;28;20067;-91
2023/01/27 06:58:14;;;;;;;4.00;2.10;;;3.70;99.90;;;;;;5078401;28;20126;-91
2023/01/27 07:00:41;;;;;;;3.58;2.22;;;3.70;99.90;;;;;;5082994;28;20444;-91
2023/01/27 07:03:10;;;;;;;5.30;2.20;;;3.70;99.90;;;;;;5078122;28;20116;-91
2023/01/27 07:05:37;;;;;;;5.93;2.20;;;3.70;99.90;;;;;;5094545;28;20039;-91
2023/01/27 07:08:03;;;;;;;4.95;2.22;;;3.70;99.90;;;;;;5099922;28;20059;-91
2023/01/27 07:10:28;;;;;;;2.35;1.80;;;3.70;99.90;;;;;;5085471;27;20261;-92
2023/01/27 07:13:10;;;;;;;6.82;1.90;;;3.70;99.90;;;;;;5079490;28;20032;-92
2023/01/27 07:15:36;;;;;;;3.85;1.80;;;3.70;99.90;;;;;;5095712;28;20108;-92
2023/01/27 07:18:02;;;;;;;4.35;2.30;;;3.70;99.90;;;;;;5080013;28;20051;-92
2023/01/27 07:20:28;;;;;;;4.93;2.00;;;3.70;99.90;;;;;;5100212;28;20040;-92
2023/01/27 07:22:59;;;;;;;4.38;1.98;;;3.70;99.90;;;;;;5097873;28;20031;-91
2023/01/27 07:25:25;;;;;;;4.28;1.90;;;3.70;99.90;;;;;;5095766;27;20112;-91
2023/01/27 07:27:51;;;;;;;5.32;1.73;;;3.70;99.90;;;;;;5086824;28;20100;-91
2023/01/27 07:30:17;;;;;;;6.28;1.83;;;3.70;99.90;;;;;;5086758;28;20043;-92
2023/01/27 07:32:43;;;;;;;3.90;1.95;;;3.70;99.90;;;;;;5084912;28;20039;-91
2023/01/27 07:35:08;;;;;;;10.98;1.95;;;3.70;99.90;;;;;;5080106;28;20035;-91
2023/01/27 07:37:46;;;;;;;4.35;1.75;;;3.70;99.90;;;;;;5097386;28;20036;-92
2023/01/27 07:40:15;;;;;;;7.35;2.10;;;3.70;99.90;;;;;;5104252;27;20165;-91
2023/01/27 07:42:41;;;;;;;4.90;2.35;;;3.70;99.90;;;;;;5096353;28;20118;-91
2023/01/27 07:45:13;;;;;;;4.55;2.33;;;3.70;99.90;;;;;;5112701;27;20478;-92
2023/01/27 07:47:41;;;;;;;7.00;2.85;;;3.80;99.90;;;;;;5083749;28;20040;-92
2023/01/27 07:50:11;;;;;;;8.35;2.10;;;3.80;99.90;;;;;;5081688;28;20042;-91
2023/01/27 07:52:37;;;;;;;3.97;2.20;;;3.80;99.90;;;;;;5084753;27;20076;-91
2023/01/27 07:55:02;;;;;;;6.63;1.90;;;3.80;99.90;;;;;;5081911;28;20102;-91
2023/01/27 07:57:28;;;;;;;6.70;2.30;;;3.80;99.90;;;;;;5096455;28;20521;-91
2023/01/27 07:59:55;;;;;;;6.10;2.42;;;3.80;99.90;;;;;;5099746;28;20044;-91
2023/01/27 08:02:22;;;;;;;5.40;2.15;;;3.80;99.90;;;;;;5102003;28;20066;-92
2023/01/27 08:04:51;;;;;;;4.65;2.63;;;3.80;99.90;;;;;;5095442;28;20643;-91
2023/01/27 08:07:16;;;;;;;5.80;3.00;;;3.80;99.90;;;;;;5076757;28;20111;-92
2023/01/27 08:09:42;;;;;;;4.72;2.13;;;3.90;99.90;;;;;;5093876;28;20103;-91
2023/01/27 08:12:08;;;;;;;5.60;2.45;;;3.90;99.90;;;;;;5095531;27;20036;-91
2023/01/27 08:14:34;;;;;;;8.27;2.63;;;4.00;99.90;;;;;;5109182;27;20128;-91
2023/01/27 08:17:00;;;;;;;6.35;3.15;;;4.10;99.90;;;;;;5084826;28;20042;-91
2023/01/27 08:19:26;;;;;;;6.00;2.63;;;4.10;99.90;;;;;;5081225;28;20040;-92
2023/01/27 08:21:52;;;;;;;5.47;2.55;;;4.10;99.90;;;;;;5097995;28;20036;-92
2023/01/27 08:24:17;;;;;;;5.72;2.78;;;4.10;99.90;;;;;;5100100;28;20034;-92
2023/01/27 08:26:43;;;;;;;9.80;2.95;;;4.20;99.90;;;;;;5097160;27;20040;-91
2023/01/27 08:29:09;;;;;;;6.70;2.78;;;4.20;99.90;;;;;;5114121;27;20039;-91
2023/01/27 08:31:34;;;;;;;7.00;2.70;;;4.20;99.90;;;;;;5098423;28;20931;-91
2023/01/27 08:34:00;;;;;;;8.10;2.95;;;4.20;99.90;;;;;;5114476;27;20042;-91
2023/01/27 08:36:25;;;;;;;5.82;3.25;;;4.10;99.90;;;;;;5101842;28;20521;-90
2023/01/27 08:38:51;;;;;;;4.93;3.20;;;4.00;99.90;;;;;;5080220;28;20130;-91
2023/01/27 08:41:20;;;;;;;7.80;4.03;;;3.90;99.90;;;;;;5115068;27;20558;-92
2023/01/27 08:43:46;;;;;;;6.85;3.28;;;3.90;99.90;;;;;;5095822;28;20040;-91
2023/01/27 08:46:12;;;;;;;10.55;3.50;;;3.90;99.90;;;;;;5092338;28;20036;-91
2023/01/27 08:48:38;;;;;;;6.43;4.03;;;3.90;99.90;;;;;;5096518;28;20134;-91
2023/01/27 08:51:05;;;;;;;7.18;3.97;;;3.90;99.90;;;;;;5093551;28;20452;-91
2023/01/27 08:53:31;;;;;;;7.68;3.63;;;3.90;99.90;;;;;;5079500;28;20044;-91
2023/01/27 08:56:00;;;;;;;8.23;3.75;;;4.00;99.90;;;;;;5096970;27;20213;-91
2023/01/27 08:58:30;;;;;;;6.75;3.88;;;4.10;99.90;;;;;;5080174;28;20048;-91
2023/01/27 09:01:01;;;;;;;5.78;3.67;;;4.10;99.90;;;;;;5079533;28;20044;-91
2023/01/27 09:03:27;;;;;;;8.43;4.38;;;4.30;99.90;;;;;;5097019;28;20073;-91
2023/01/27 09:05:53;;;;;;;7.05;4.10;;;4.30;99.90;;;;;;5079292;28;20036;-91
2023/01/27 09:08:19;;;;;;;8.15;4.30;;;4.40;99.90;;;;;;5078708;28;20100;-91
2023/01/27 09:10:44;;;;;;;9.95;4.20;;;4.40;99.90;;;;;;5079006;28;20439;-92
2023/01/27 09:13:10;;;;;;;7.88;4.13;;;4.40;99.90;;;;;;5077649;28;20124;-92
2023/01/27 09:15:36;;;;;;;7.90;4.20;;;4.50;99.90;;;;;;5095485;28;20031;-91
2023/01/27 09:18:03;;;;;;;8.45;3.80;;;4.50;99.90;;;;;;5100702;28;20044;-91
2023/01/27 09:20:29;;;;;;;11.07;4.57;;;4.50;99.90;;;;;;5080564;28;20540;-91
2023/01/27 09:22:57;;;;;;;5.88;3.92;;;4.60;99.90;;;;;;5079000;28;20036;-91
2023/01/27 09:25:23;;;;;;;7.45;4.68;;;4.60;99.90;;;;;;5096760;28;20260;-91
2023/01/27 09:27:56;;;;;;;7.57;4.38;;;4.60;99.90;;;;;;5076057;28;20040;-92
2023/01/27 09:30:23;;;;;;;7.00;3.70;;;4.60;99.90;;;;;;5097085;28;20054;-91
2023/01/27 09:32:49;;;;;;;5.53;3.70;;;4.50;99.90;;;;;;5097844;28;20070;-91
2023/01/27 09:35:15;;;;;;;9.95;3.85;;;4.50;99.90;;;;;;5083280;28;20120;-92
2023/01/27 09:37:48;;;;;;;9.02;4.00;;;4.60;99.90;;;;;;5066457;28;20435;-91
2023/01/27 09:40:51;;;;;;;5.60;3.70;;;4.60;99.90;;;;;;5081589;28;20123;-91
2023/01/27 09:43:35;;;;;;;7.90;3.45;;;4.60;99.90;;;;;;5031872;28;20503;-91
2023/01/27 09:46:36;;;;;;;7.25;3.67;;;4.60;99.90;;;;;;5079665;28;20367;-91
2023/01/27 09:49:13;;;;;;;7.47;3.97;;;4.70;99.90;;;;;;5025680;28;20091;-91
2023/01/27 09:52:03;;;;;;;7.38;3.72;;;4.50;99.90;;;;;;5098009;28;20035;-91
2023/01/27 09:54:35;;;;;;;6.45;3.70;;;4.60;99.90;;;;;;5081273;28;20111;-91
2023/01/27 09:57:33;;;;;;;7.53;3.45;;;4.60;99.90;;;;;;5079491;28;20047;-92
2023/01/27 10:00:19;;;;;;;8.77;3.00;;;4.70;99.90;;;;;;5084360;28;20103;-91
2023/01/27 10:02:45;;;;;;;5.38;3.00;;;4.80;99.90;;;;;;5082608;28;20320;-92
2023/01/27 10:05:49;;;;;;;5.07;2.70;;;5.00;99.90;;;;;;5096984;28;20035;-92
2023/01/27 10:08:49;;;;;;;4.63;3.28;;;5.20;99.90;;;;;;5080176;28;20338;-91
2023/01/27 10:11:46;;;;;;;6.15;3.40;;;5.40;99.90;;;;;;5082886;28;20040;-92
2023/01/27 10:14:31;;;;;;;7.55;3.33;;;5.30;99.90;;;;;;5077515;28;20048;-91
2023/01/27 10:17:16;;;;;;;4.88;2.75;;;5.50;99.90;;;;;;5080063;28;20046;-92
2023/01/27 10:20:03;;;;;;;3.50;2.75;;;5.40;99.90;;;;;;5105424;28;20058;-92
2023/01/27 10:22:34;;;;;;;4.88;2.47;;;5.20;99.90;;;;;;5102590;28;21048;-91
2023/01/27 10:25:36;;;;;;;5.38;2.75;;;5.50;99.90;;;;;;5102361;28;20032;-91
2023/01/27 10:28:13;;;;;;;5.28;3.22;;;5.50;99.90;;;;;;5078440;27;20063;-91
2023/01/27 10:31:04;;;;;;;5.13;2.78;;;5.40;99.90;;;;;;5076834;28;20051;-91
2023/01/27 10:33:55;;;;;;;5.13;2.90;;;5.20;99.90;;;;;;5070836;28;20114;-91
2023/01/27 10:36:25;;;;;;;4.03;2.65;;;5.10;99.90;;;;;;5101927;27;20039;-91
2023/01/27 10:39:19;;;;;;;5.70;2.50;;;5.20;99.90;;;;;;5098748;28;20044;-91
2023/01/27 10:42:00;;;;;;;2.92;2.42;;;5.20;99.90;;;;;;5088128;28;20085;-91
2023/01/27 10:45:09;;;;;;;4.60;2.70;;;5.20;99.90;;;;;;5103127;28;20065;-92
2023/01/27 10:48:13;;;;;;;5.15;2.53;;;5.20;99.90;;;;;;5085834;28;20077;-91
2023/01/27 10:50:50;;;;;;;2.92;2.30;;;5.20;99.90;;;;;;5066712;28;20067;-91
2023/01/27 10:53:27;;;;;;;3.35;2.30;;;5.20;99.90;;;;;;5101076;28;20047;-91
2023/01/27 10:56:32;;;;;;;4.03;2.50;;;5.10;99.90;;;;;;5098597;28;20059;-92
2023/01/27 10:59:15;;;;;;;3.97;3.03;;;4.90;99.90;;;;;;5081489;28;20356;-92
2023/01/27 11:01:59;;;;;;;3.45;3.10;;;4.80;99.90;;;;;;5099408;28;20030;-91
2023/01/27 11:04:41;;;;;;;3.97;2.92;;;4.80;99.90;;;;;;5095470;28;20036;-91
2023/01/27 11:07:18;;;;;;;3.33;2.75;;;4.80;99.90;;;;;;5084793;27;20066;-91
2023/01/27 11:09:56;;;;;;;3.38;3.00;;;4.70;99.90;;;;;;5097551;28;20039;-92
2023/01/27 11:12:50;;;;;;;4.45;3.28;;;4.70;99.90;;;;;;5079991;28;20736;-92
2023/01/27 11:15:34;;;;;;;3.65;3.13;;;4.70;99.90;;;;;;5073666;27;20460;-91
2023/01/27 11:18:03;;;;;;;4.03;3.13;;;4.70;99.90;;;;;;5089475;28;20036;-91
2023/01/27 11:20:31;;;;;;;4.25;2.97;;;4.70;99.90;;;;;;5101995;28;20114;-92
2023/01/27 11:23:15;;;;;;;3.13;2.83;;;4.70;99.90;;;;;;5082477;28;20036;-91
2023/01/27 11:25:52;;;;;;;3.45;2.90;;;4.60;99.90;;;;;;5100816;28;20036;-91
2023/01/27 11:28:36;;;;;;;3.42;2.60;;;4.70;99.90;;;;;;5084336;28;20140;-91
2023/01/27 11:31:36;;;;;;;2.90;2.35;;;4.70;99.90;;;;;;5080893;28;20403;-91
2023/01/27 11:34:09;;;;;;;5.15;2.70;;;4.70;99.90;;;;;;5080398;28;20070;-92
2023/01/27 11:36:35;;;;;;;3.50;3.03;;;4.80;99.90;;;;;;5074240;28;20042;-91
2023/01/27 11:39:03;;;;;;;4.88;3.10;;;4.90;99.90;;;;;;5078611;28;20048;-91
2023/01/27 11:41:35;;;;;;;2.88;2.58;;;5.00;99.90;;;;;;5099095;28;20285;-92
2023/01/27 11:44:19;;;;;;;4.03;2.90;;;5.00;99.90;;;;;;5098261;28;20449;-92
2023/01/27 11:46:47;;;;;;;4.03;3.00;;;4.80;99.90;;;;;;5092708;28;20050;-92
2023/01/27 11:49:26;;;;;;;3.55;2.85;;;5.00;99.90;;;;;;5094587;28;20471;-91
2023/01/27 11:52:10;;;;;;;3.30;3.00;;;4.90;99.90;;;;;;5088854;28;20075;-91
2023/01/27 11:54:43;;;;;;;2.95;2.53;;;5.00;99.90;;;;;;5083479;28;20071;-91
2023/01/27 11:57:20;;;;;;;4.32;2.97;;;5.00;99.90;;;;;;5084330;28;20189;-91
2023/01/27 11:59:53;;;;;;;3.97;3.30;;;4.80;99.90;;;;;;5081901;28;20675;-91
2023/01/27 12:02:39;;;;;;;4.40;3.50;;;4.70;99.90;;;;;;5096059;28;20158;-91
2023/01/27 12:05:16;;;;;;;4.13;2.88;;;4.90;99.90;;;;;;5099996;28;20044;-91
2023/01/27 12:07:55;;;;;;;3.97;2.90;;;4.90;99.90;;;;;;5096892;28;20127;-91
2023/01/27 12:10:27;;;;;;;2.97;2.67;;;4.80;99.90;;;;;;5082063;28;20041;-91
2023/01/27 12:12:54;;;;;;;3.17;2.60;;;4.80;99.90;;;;;;5081794;28;20073;-91
2023/01/27 12:15:20;;;;;;;2.60;2.40;;;4.80;99.90;;;;;;5085521;28;20058;-91
2023/01/27 12:17:59;;;;;;;3.47;2.55;;;4.80;99.90;;;;;;5081235;28;20159;-92
2023/01/27 12:20:36;;;;;;;3.63;2.70;;;4.80;99.90;;;;;;5080255;28;20043;-91
2023/01/27 12:23:04;;;;;;;2.80;2.40;;;4.80;99.90;;;;;;5081950;28;20126;-92
2023/01/27 12:25:40;;;;;;;2.78;2.30;;;4.80;99.90;;;;;;5087790;28;20047;-91
2023/01/27 12:28:23;;;;;;;2.70;2.30;;;4.80;99.90;;;;;;5096963;28;20114;-92
2023/01/27 12:30:51;;;;;;;4.45;3.10;;;4.80;99.90;;;;;;5080178;28;20054;-92
2023/01/27 12:33:26;;;;;;;3.50;3.13;;;4.70;99.90;;;;;;5096889;28;20082;-91
2023/01/27 12:35:55;;;;;;;;;;;4.60;99.90;;;;;;5087218;28;20071;-91
2023/01/27 12:38:24;;;;;;;4.18;3.10;;;4.70;99.90;;;;;;5103041;27;19923;-91
2023/01/27 12:41:01;;;;;;;3.10;2.80;;;4.70;99.90;;;;;;5097785;27;20096;-91
2023/01/27 12:43:30;;;;;;;3.30;2.92;;;4.50;99.90;;;;;;5087950;27;20053;-91
2023/01/27 12:46:16;;;;;;;3.10;2.80;;;4.50;99.90;;;;;;5080544;27;20031;-91
2023/01/27 12:48:51;;;;;;;2.90;2.63;;;4.50;99.90;;;;;;5097586;27;20524;-92
2023/01/27 12:51:20;;;;;;;3.63;2.88;;;4.50;99.90;;;;;;5098703;27;20039;-91
2023/01/27 12:54:10;;;;;;;3.25;2.63;;;4.50;99.90;;;;;;5099924;27;20034;-91
2023/01/27 12:56:37;;;;;;;3.00;2.70;;;4.50;99.90;;;;;;5085742;27;20043;-91
2023/01/27 12:59:02;;;;;;;3.28;2.80;;;4.50;99.90;;;;;;5084432;27;20053;-92
2023/01/27 13:01:30;;;;;;;3.75;3.22;;;4.40;99.90;;;;;;5087712;27;20031;-91
2023/01/27 13:04:01;;;;;;;3.17;2.65;;;4.40;99.90;;;;;;5099416;27;20039;-92
2023/01/27 13:06:42;;;;;;;3.70;3.00;;;4.40;99.90;;;;;;5086043;27;20043;-92
2023/01/27 13:09:29;;;;;;;3.15;2.70;;;4.40;99.90;;;;;;5089399;27;20039;-91
2023/01/27 13:11:59;;;;;;;2.97;2.65;;;4.50;99.90;;;;;;5089942;27;20031;-92
2023/01/27 13:14:29;;;;;;;3.22;2.92;;;4.50;99.90;;;;;;5100883;27;20070;-92
2023/01/27 13:16:57;;;;;;;2.90;2.70;;;4.50;99.90;;;;;;5098442;27;20096;-91
2023/01/27 13:19:48;;;;;;;3.25;2.55;;;4.50;99.90;;;;;;5088701;27;20023;-92
2023/01/27 13:22:20;;;;;;;3.38;2.75;;;4.50;99.90;;;;;;5100311;27;20031;-92
2023/01/27 13:24:50;;;;;;;3.72;2.92;;;4.50;99.90;;;;;;5086783;27;20043;-91
2023/01/27 13:27:20;;;;;;;3.40;3.10;;;4.50;99.90;;;;;;5099755;27;20293;-91
2023/01/27 13:30:02;;;;;;;3.83;2.80;;;4.50;99.90;;;;;;5096225;27;20099;-91
2023/01/27 13:32:35;;;;;;;4.15;3.08;;;4.50;99.90;;;;;;5083749;27;20189;-91
2023/01/27 13:35:24;;;;;;;4.18;3.35;;;4.50;99.90;;;;;;5087325;27;20039;-91
2023/01/27 13:38:07;;;;;;;3.80;3.40;;;4.40;99.90;;;;;;5100964;27;20133;-91
2023/01/27 13:40:43;;;;;;;4.88;3.80;;;4.40;99.90;;;;;;5063904;28;20047;-92
2023/01/27 13:43:33;;;;;;;5.10;4.10;;;4.30;99.90;;;;;;5075320;28;20040;-91
2023/01/27 13:46:25;;;;;;;5.20;4.20;;;4.20;99.90;;;;;;5092360;28;20047;-92
2023/01/27 13:48:57;;;;;;;4.85;3.88;;;4.20;99.90;;;;;;5053456;28;20135;-91